sensor_id;sensor_type;location;lat;lon;timestamp;pressure;altitude;pressure_sealevel;temperature;humidity
6132;BME280;3097;42.692;23.278;2023-05-24T00:00:13;94833.00;;;14.01;88.26
6132;BME280;3097;42.692;23.278;2023-05-24T00:02:40;94819.69;;;13.92;88.06
6132;BME280;3097;42.692;23.278;2023-05-24T00:05:07;94820.47;;;13.92;88.65
6132;BME280;3097;42.692;23.278;2023-05-24T00:07:37;94822.78;;;13.89;88.72
6132;BME280;3097;42.692;23.278;2023-05-24T00:10:04;94802.09;;;13.72;88.27
6132;BME280;3097;42.692;23.278;2023-05-24T00:12:30;94826.06;;;13.84;88.62
6132;BME280;3097;42.692;23.278;2023-05-24T00:14:55;94829.94;;;13.82;88.70
6132;BME280;3097;42.692;23.278;2023-05-24T00:17:20;94827.81;;;13.79;88.67
6132;BME280;3097;42.692;23.278;2023-05-24T00:19:46;94814.75;;;13.69;89.00
6132;BME280;3097;42.692;23.278;2023-05-24T00:22:12;94817.66;;;13.72;88.85
6132;BME280;3097;42.692;23.278;2023-05-24T00:24:39;94818.38;;;13.68;89.86
6132;BME280;3097;42.692;23.278;2023-05-24T00:27:05;94811.81;;;13.60;89.83
6132;BME280;3097;42.692;23.278;2023-05-24T00:29:30;94801.13;;;13.56;89.35
6132;BME280;3097;42.692;23.278;2023-05-24T00:31:56;94812.84;;;13.59;89.19
6132;BME280;3097;42.692;23.278;2023-05-24T00:34:21;94816.22;;;13.60;89.89
6132;BME280;3097;42.692;23.278;2023-05-24T00:36:47;94800.84;;;13.53;89.66
6132;BME280;3097;42.692;23.278;2023-05-24T00:39:12;94806.38;;;13.62;89.54
6132;BME280;3097;42.692;23.278;2023-05-24T00:41:38;94809.22;;;13.60;89.88
6132;BME280;3097;42.692;23.278;2023-05-24T00:44:03;94813.06;;;13.57;90.12
6132;BME280;3097;42.692;23.278;2023-05-24T00:46:31;94805.25;;;13.52;90.28
6132;BME280;3097;42.692;23.278;2023-05-24T00:48:57;94810.16;;;13.54;89.97
6132;BME280;3097;42.692;23.278;2023-05-24T00:51:24;94817.66;;;13.50;90.23
6132;BME280;3097;42.692;23.278;2023-05-24T00:53:51;94818.44;;;13.51;90.14
6132;BME280;3097;42.692;23.278;2023-05-24T00:56:17;94816.53;;;13.46;90.45
6132;BME280;3097;42.692;23.278;2023-05-24T00:58:42;94817.03;;;13.43;90.30
6132;BME280;3097;42.692;23.278;2023-05-24T01:01:08;94813.13;;;13.41;90.74
6132;BME280;3097;42.692;23.278;2023-05-24T01:03:33;94806.41;;;13.23;91.15
6132;BME280;3097;42.692;23.278;2023-05-24T01:06:04;94815.56;;;13.31;90.71
6132;BME280;3097;42.692;23.278;2023-05-24T01:11:28;94821.19;;;13.23;90.69
6132;BME280;3097;42.692;23.278;2023-05-24T01:14:21;94827.97;;;13.12;91.34
6132;BME280;3097;42.692;23.278;2023-05-24T01:17:03;94830.13;;;13.15;91.40
6132;BME280;3097;42.692;23.278;2023-05-24T01:22:37;94826.91;;;13.08;91.51
6132;BME280;3097;42.692;23.278;2023-05-24T01:25:18;94827.91;;;13.07;91.95
6132;BME280;3097;42.692;23.278;2023-05-24T01:27:47;94818.81;;;13.04;91.72
6132;BME280;3097;42.692;23.278;2023-05-24T01:30:13;94825.84;;;13.09;91.43
6132;BME280;3097;42.692;23.278;2023-05-24T01:32:39;94830.56;;;13.12;91.61
6132;BME280;3097;42.692;23.278;2023-05-24T01:35:06;94835.03;;;13.16;90.94
6132;BME280;3097;42.692;23.278;2023-05-24T01:37:31;94830.13;;;13.15;90.73
6132;BME280;3097;42.692;23.278;2023-05-24T01:39:57;94838.56;;;13.10;90.95
6132;BME280;3097;42.692;23.278;2023-05-24T01:45:02;94818.81;;;12.88;91.07
6132;BME280;3097;42.692;23.278;2023-05-24T01:50:31;94829.16;;;12.88;91.82
6132;BME280;3097;42.692;23.278;2023-05-24T01:53:03;94828.53;;;12.80;92.31
6132;BME280;3097;42.692;23.278;2023-05-24T01:55:30;94806.59;;;12.66;92.50
6132;BME280;3097;42.692;23.278;2023-05-24T01:58:00;94825.41;;;12.78;92.77
6132;BME280;3097;42.692;23.278;2023-05-24T02:00:27;94821.19;;;12.72;92.43
6132;BME280;3097;42.692;23.278;2023-05-24T02:02:53;94823.38;;;12.80;92.55
6132;BME280;3097;42.692;23.278;2023-05-24T02:05:20;94825.97;;;12.80;92.12
6132;BME280;3097;42.692;23.278;2023-05-24T02:07:45;94817.66;;;12.78;91.86
6132;BME280;3097;42.692;23.278;2023-05-24T02:10:11;94818.97;;;12.81;91.73
6132;BME280;3097;42.692;23.278;2023-05-24T02:12:36;94817.34;;;12.75;92.53
6132;BME280;3097;42.692;23.278;2023-05-24T02:15:02;94784.22;;;12.55;92.61
6132;BME280;3097;42.692;23.278;2023-05-24T02:17:29;94786.31;;;12.58;92.33
6132;BME280;3097;42.692;23.278;2023-05-24T02:19:58;94817.66;;;12.78;92.43
6132;BME280;3097;42.692;23.278;2023-05-24T02:22:24;94811.94;;;12.76;92.72
6132;BME280;3097;42.692;23.278;2023-05-24T02:24:50;94778.72;;;12.52;92.17
6132;BME280;3097;42.692;23.278;2023-05-24T02:27:15;94816.34;;;12.76;91.90
6132;BME280;3097;42.692;23.278;2023-05-24T02:29:41;94809.59;;;12.75;91.38
6132;BME280;3097;42.692;23.278;2023-05-24T02:32:06;94813.41;;;12.72;91.53
6132;BME280;3097;42.692;23.278;2023-05-24T02:34:32;94806.94;;;12.70;91.22
6132;BME280;3097;42.692;23.278;2023-05-24T02:36:57;94810.03;;;12.72;91.56
6132;BME280;3097;42.692;23.278;2023-05-24T02:39:23;94768.81;;;12.49;91.31
6132;BME280;3097;42.692;23.278;2023-05-24T02:41:48;94808.41;;;12.66;91.26
6132;BME280;3097;42.692;23.278;2023-05-24T02:44:14;94813.34;;;12.67;91.27
6132;BME280;3097;42.692;23.278;2023-05-24T02:46:39;94812.72;;;12.60;91.40
6132;BME280;3097;42.692;23.278;2023-05-24T02:49:05;94812.41;;;12.57;91.67
6132;BME280;3097;42.692;23.278;2023-05-24T02:51:30;94800.19;;;12.52;91.85
6132;BME280;3097;42.692;23.278;2023-05-24T02:53:57;94787.31;;;12.40;91.62
6132;BME280;3097;42.692;23.278;2023-05-24T02:56:22;94812.88;;;12.54;91.80
6132;BME280;3097;42.692;23.278;2023-05-24T02:58:48;94813.66;;;12.54;91.75
6132;BME280;3097;42.692;23.278;2023-05-24T03:01:13;94813.56;;;12.49;91.79
6132;BME280;3097;42.692;23.278;2023-05-24T03:03:39;94821.81;;;12.46;92.34
6132;BME280;3097;42.692;23.278;2023-05-24T03:06:05;94818.22;;;12.47;92.40
6132;BME280;3097;42.692;23.278;2023-05-24T03:08:32;94825.41;;;12.45;92.44
6132;BME280;3097;42.692;23.278;2023-05-24T03:10:58;94823.59;;;12.46;92.33
6132;BME280;3097;42.692;23.278;2023-05-24T03:13:23;94827.75;;;12.47;92.74
6132;BME280;3097;42.692;23.278;2023-05-24T03:15:49;94834.81;;;12.51;92.69
6132;BME280;3097;42.692;23.278;2023-05-24T03:18:14;94826.03;;;12.52;91.99
6132;BME280;3097;42.692;23.278;2023-05-24T03:20:40;94831.22;;;12.52;92.03
6132;BME280;3097;42.692;23.278;2023-05-24T03:23:05;94828.44;;;12.42;92.68
6132;BME280;3097;42.692;23.278;2023-05-24T03:25:31;94785.34;;;12.14;92.89
6132;BME280;3097;42.692;23.278;2023-05-24T03:27:57;94833.88;;;12.57;92.57
6132;BME280;3097;42.692;23.278;2023-05-24T03:30:22;94838.88;;;12.64;91.97
6132;BME280;3097;42.692;23.278;2023-05-24T03:32:47;94828.91;;;12.56;91.83
6132;BME280;3097;42.692;23.278;2023-05-24T03:35:13;94844.31;;;12.62;92.40
6132;BME280;3097;42.692;23.278;2023-05-24T03:37:39;94845.84;;;12.63;92.39
6132;BME280;3097;42.692;23.278;2023-05-24T03:40:05;94833.19;;;12.62;92.56
6132;BME280;3097;42.692;23.278;2023-05-24T03:42:30;94846.59;;;12.75;92.38
6132;BME280;3097;42.692;23.278;2023-05-24T03:44:56;94836.00;;;12.77;92.19
6132;BME280;3097;42.692;23.278;2023-05-24T03:47:21;94847.16;;;12.77;93.21
6132;BME280;3097;42.692;23.278;2023-05-24T03:49:47;94840.47;;;12.82;92.28
6132;BME280;3097;42.692;23.278;2023-05-24T03:52:12;94848.91;;;12.94;91.90
6132;BME280;3097;42.692;23.278;2023-05-24T03:54:38;94848.91;;;12.94;92.16
6132;BME280;3097;42.692;23.278;2023-05-24T03:57:03;94823.16;;;12.82;92.53
6132;BME280;3097;42.692;23.278;2023-05-24T03:59:29;94847.09;;;13.11;92.04
6132;BME280;3097;42.692;23.278;2023-05-24T04:01:55;94842.72;;;13.28;91.49
6132;BME280;3097;42.692;23.278;2023-05-24T04:04:20;94850.66;;;13.60;89.95
6132;BME280;3097;42.692;23.278;2023-05-24T04:06:46;94855.00;;;13.98;88.01
6132;BME280;3097;42.692;23.278;2023-05-24T04:09:12;94843.44;;;14.32;85.87
6132;BME280;3097;42.692;23.278;2023-05-24T04:11:37;94836.31;;;14.77;83.97
6132;BME280;3097;42.692;23.278;2023-05-24T04:14:03;94814.00;;;15.13;81.65
6132;BME280;3097;42.692;23.278;2023-05-24T04:16:28;94853.38;;;15.88;79.29
6132;BME280;3097;42.692;23.278;2023-05-24T04:18:58;94851.19;;;16.38;77.23
6132;BME280;3097;42.692;23.278;2023-05-24T04:21:28;94855.69;;;16.98;74.40
6132;BME280;3097;42.692;23.278;2023-05-24T04:23:54;94860.06;;;17.48;72.46
6132;BME280;3097;42.692;23.278;2023-05-24T04:26:25;94845.09;;;17.94;70.24
6132;BME280;3097;42.692;23.278;2023-05-24T04:28:52;94855.97;;;18.55;67.98
6132;BME280;3097;42.692;23.278;2023-05-24T04:31:17;94855.25;;;19.18;65.62
6132;BME280;3097;42.692;23.278;2023-05-24T04:33:44;94821.56;;;19.45;63.05
6132;BME280;3097;42.692;23.278;2023-05-24T04:36:09;94857.72;;;20.09;60.91
6132;BME280;3097;42.692;23.278;2023-05-24T04:38:35;94860.03;;;20.54;60.45
6132;BME280;3097;42.692;23.278;2023-05-24T04:41:03;94860.53;;;21.26;59.18
6132;BME280;3097;42.692;23.278;2023-05-24T04:43:30;94853.59;;;21.89;57.60
6132;BME280;3097;42.692;23.278;2023-05-24T04:45:56;94866.75;;;22.66;55.60
6132;BME280;3097;42.692;23.278;2023-05-24T04:48:22;94868.81;;;23.36;54.24
6132;BME280;3097;42.692;23.278;2023-05-24T04:50:53;94869.69;;;23.93;51.52
6132;BME280;3097;42.692;23.278;2023-05-24T04:53:19;94866.44;;;24.62;50.61
6132;BME280;3097;42.692;23.278;2023-05-24T04:55:45;94864.25;;;25.33;48.70
6132;BME280;3097;42.692;23.278;2023-05-24T04:58:10;94852.91;;;25.88;46.68
6132;BME280;3097;42.692;23.278;2023-05-24T05:00:36;94857.81;;;26.56;45.20
6132;BME280;3097;42.692;23.278;2023-05-24T05:03:01;94861.09;;;27.16;44.43
6132;BME280;3097;42.692;23.278;2023-05-24T05:05:27;94863.78;;;27.73;42.21
6132;BME280;3097;42.692;23.278;2023-05-24T05:07:53;94861.84;;;28.19;41.57
6132;BME280;3097;42.692;23.278;2023-05-24T05:10:18;94861.50;;;28.20;40.11
6132;BME280;3097;42.692;23.278;2023-05-24T05:12:44;94861.38;;;28.04;39.59
6132;BME280;3097;42.692;23.278;2023-05-24T05:15:09;94867.13;;;28.31;40.13
6132;BME280;3097;42.692;23.278;2023-05-24T05:17:35;94848.56;;;28.31;39.17
6132;BME280;3097;42.692;23.278;2023-05-24T05:20:01;94863.84;;;29.14;39.91
6132;BME280;3097;42.692;23.278;2023-05-24T05:22:27;94875.16;;;29.70;38.12
6132;BME280;3097;42.692;23.278;2023-05-24T05:24:53;94870.59;;;29.98;36.49
6132;BME280;3097;42.692;23.278;2023-05-24T05:27:18;94874.41;;;30.32;36.15
6132;BME280;3097;42.692;23.278;2023-05-24T05:29:43;94877.59;;;30.73;36.46
6132;BME280;3097;42.692;23.278;2023-05-24T05:32:09;94867.88;;;31.19;36.22
6132;BME280;3097;42.692;23.278;2023-05-24T05:34:35;94863.22;;;31.77;34.23
6132;BME280;3097;42.692;23.278;2023-05-24T05:37:00;94870.69;;;31.91;33.24
6132;BME280;3097;42.692;23.278;2023-05-24T05:39:26;94851.78;;;31.77;33.73
6132;BME280;3097;42.692;23.278;2023-05-24T05:41:51;94864.75;;;32.24;33.48
6132;BME280;3097;42.692;23.278;2023-05-24T05:44:16;94869.81;;;32.89;32.80
6132;BME280;3097;42.692;23.278;2023-05-24T05:46:42;94867.44;;;33.47;30.97
6132;BME280;3097;42.692;23.278;2023-05-24T05:49:13;94867.81;;;33.86;29.75
6132;BME280;3097;42.692;23.278;2023-05-24T05:51:40;94852.06;;;33.74;29.41
6132;BME280;3097;42.692;23.278;2023-05-24T05:54:07;94848.28;;;33.41;30.05
6132;BME280;3097;42.692;23.278;2023-05-24T05:56:42;94873.38;;;33.67;29.35
6132;BME280;3097;42.692;23.278;2023-05-24T05:59:13;94874.31;;;33.85;29.61
6132;BME280;3097;42.692;23.278;2023-05-24T06:01:39;94850.94;;;33.78;29.12
6132;BME280;3097;42.692;23.278;2023-05-24T06:04:05;94870.47;;;34.30;29.82
6132;BME280;3097;42.692;23.278;2023-05-24T06:06:30;94880.84;;;35.01;29.20
6132;BME280;3097;42.692;23.278;2023-05-24T06:08:58;94866.44;;;35.51;29.18
6132;BME280;3097;42.692;23.278;2023-05-24T06:11:23;94880.31;;;36.10;28.27
6132;BME280;3097;42.692;23.278;2023-05-24T06:13:49;94867.66;;;36.07;27.53
6132;BME280;3097;42.692;23.278;2023-05-24T06:16:14;94888.00;;;36.01;28.15
6132;BME280;3097;42.692;23.278;2023-05-24T06:18:40;94880.31;;;35.75;27.84
6132;BME280;3097;42.692;23.278;2023-05-24T06:21:05;94889.03;;;35.50;28.38
6132;BME280;3097;42.692;23.278;2023-05-24T06:23:37;94887.78;;;35.19;29.01
6132;BME280;3097;42.692;23.278;2023-05-24T06:26:02;94880.47;;;35.06;29.65
6132;BME280;3097;42.692;23.278;2023-05-24T06:28:28;94881.22;;;34.34;27.57
6132;BME280;3097;42.692;23.278;2023-05-24T06:30:53;94791.22;;;32.04;30.15
6132;BME280;3097;42.692;23.278;2023-05-24T06:33:19;94879.69;;;31.83;33.44
6132;BME280;3097;42.692;23.278;2023-05-24T06:35:45;94885.16;;;31.48;32.49
6132;BME280;3097;42.692;23.278;2023-05-24T06:38:10;94879.84;;;31.29;33.96
6132;BME280;3097;42.692;23.278;2023-05-24T06:40:36;94887.59;;;30.99;34.09
6132;BME280;3097;42.692;23.278;2023-05-24T06:43:03;94884.88;;;30.10;34.29
6132;BME280;3097;42.692;23.278;2023-05-24T06:45:29;94885.47;;;29.87;38.04
6132;BME280;3097;42.692;23.278;2023-05-24T06:47:54;94878.53;;;29.83;38.19
6132;BME280;3097;42.692;23.278;2023-05-24T06:50:20;94868.25;;;29.81;40.67
6132;BME280;3097;42.692;23.278;2023-05-24T06:52:46;94878.38;;;29.76;40.05
6132;BME280;3097;42.692;23.278;2023-05-24T06:55:12;94872.84;;;29.37;38.28
6132;BME280;3097;42.692;23.278;2023-05-24T06:57:37;94875.25;;;29.02;38.96
6132;BME280;3097;42.692;23.278;2023-05-24T07:00:03;94868.78;;;28.87;40.68
6132;BME280;3097;42.692;23.278;2023-05-24T07:02:34;94877.34;;;28.69;40.73
6132;BME280;3097;42.692;23.278;2023-05-24T07:04:59;94877.66;;;28.79;43.33
6132;BME280;3097;42.692;23.278;2023-05-24T07:07:24;94867.09;;;28.95;43.63
6132;BME280;3097;42.692;23.278;2023-05-24T07:09:50;94872.84;;;29.09;44.46
6132;BME280;3097;42.692;23.278;2023-05-24T07:12:16;94874.84;;;29.00;42.58
6132;BME280;3097;42.692;23.278;2023-05-24T07:14:42;94876.16;;;29.06;40.94
6132;BME280;3097;42.692;23.278;2023-05-24T07:17:07;94877.56;;;29.16;42.44
6132;BME280;3097;42.692;23.278;2023-05-24T07:19:34;94871.94;;;29.05;41.64
6132;BME280;3097;42.692;23.278;2023-05-24T07:22:00;94873.38;;;29.03;40.92
6132;BME280;3097;42.692;23.278;2023-05-24T07:24:26;94878.47;;;29.08;41.19
6132;BME280;3097;42.692;23.278;2023-05-24T07:26:51;94871.09;;;29.01;40.93
6132;BME280;3097;42.692;23.278;2023-05-24T07:29:18;94873.63;;;28.98;42.95
6132;BME280;3097;42.692;23.278;2023-05-24T07:31:44;94879.13;;;29.05;41.13
6132;BME280;3097;42.692;23.278;2023-05-24T07:34:09;94884.06;;;28.91;43.03
6132;BME280;3097;42.692;23.278;2023-05-24T07:36:35;94882.91;;;29.04;44.14
6132;BME280;3097;42.692;23.278;2023-05-24T07:39:01;94876.38;;;29.29;44.50
6132;BME280;3097;42.692;23.278;2023-05-24T07:41:28;94875.44;;;29.65;43.33
6132;BME280;3097;42.692;23.278;2023-05-24T07:43:54;94882.47;;;29.89;41.50
6132;BME280;3097;42.692;23.278;2023-05-24T07:46:20;94880.00;;;29.96;41.50
6132;BME280;3097;42.692;23.278;2023-05-24T07:48:46;94879.75;;;30.01;42.61
6132;BME280;3097;42.692;23.278;2023-05-24T07:51:11;94882.16;;;30.06;36.72
6132;BME280;3097;42.692;23.278;2023-05-24T07:53:37;94874.34;;;29.97;41.13
6132;BME280;3097;42.692;23.278;2023-05-24T07:56:02;94873.72;;;29.73;37.80
6132;BME280;3097;42.692;23.278;2023-05-24T07:58:28;94872.00;;;29.64;41.55
6132;BME280;3097;42.692;23.278;2023-05-24T08:00:53;94874.34;;;29.82;41.42
6132;BME280;3097;42.692;23.278;2023-05-24T08:03:19;94870.75;;;30.06;38.98
6132;BME280;3097;42.692;23.278;2023-05-24T08:05:45;94874.41;;;30.32;40.49
6132;BME280;3097;42.692;23.278;2023-05-24T08:08:10;94870.28;;;30.35;37.72
6132;BME280;3097;42.692;23.278;2023-05-24T08:10:35;94870.81;;;30.09;37.34
6132;BME280;3097;42.692;23.278;2023-05-24T08:13:01;94864.50;;;30.14;39.52
6132;BME280;3097;42.692;23.278;2023-05-24T08:15:27;94852.38;;;30.00;33.84
6132;BME280;3097;42.692;23.278;2023-05-24T08:17:53;94861.88;;;29.86;34.33
6132;BME280;3097;42.692;23.278;2023-05-24T08:20:18;94863.41;;;29.55;33.92
6132;BME280;3097;42.692;23.278;2023-05-24T08:22:45;94868.91;;;29.62;35.50
6132;BME280;3097;42.692;23.278;2023-05-24T08:25:12;94864.44;;;29.35;32.03
6132;BME280;3097;42.692;23.278;2023-05-24T08:27:38;94854.69;;;29.27;34.46
6132;BME280;3097;42.692;23.278;2023-05-24T08:30:04;94860.16;;;29.18;34.70
6132;BME280;3097;42.692;23.278;2023-05-24T08:32:30;94863.41;;;29.12;36.73
6132;BME280;3097;42.692;23.278;2023-05-24T08:34:56;94859.56;;;29.25;37.62
6132;BME280;3097;42.692;23.278;2023-05-24T08:37:21;94860.66;;;29.36;36.55
6132;BME280;3097;42.692;23.278;2023-05-24T08:39:47;94865.19;;;29.36;35.93
6132;BME280;3097;42.692;23.278;2023-05-24T08:42:14;94850.75;;;29.21;30.42
6132;BME280;3097;42.692;23.278;2023-05-24T08:45:02;94859.38;;;29.18;34.37
6132;BME280;3097;42.692;23.278;2023-05-24T08:47:29;94859.75;;;29.16;31.22
6132;BME280;3097;42.692;23.278;2023-05-24T08:49:55;94863.13;;;29.01;33.02
6132;BME280;3097;42.692;23.278;2023-05-24T08:52:21;94859.78;;;28.64;29.93
6132;BME280;3097;42.692;23.278;2023-05-24T08:54:48;94867.31;;;28.13;31.98
6132;BME280;3097;42.692;23.278;2023-05-24T08:57:14;94863.81;;;28.09;33.01
6132;BME280;3097;42.692;23.278;2023-05-24T08:59:40;94859.16;;;28.06;33.11
6132;BME280;3097;42.692;23.278;2023-05-24T09:02:09;94858.19;;;28.11;37.50
6132;BME280;3097;42.692;23.278;2023-05-24T09:04:38;94854.97;;;27.93;34.03
6132;BME280;3097;42.692;23.278;2023-05-24T09:07:05;94837.06;;;27.78;34.39
6132;BME280;3097;42.692;23.278;2023-05-24T09:09:33;94839.94;;;27.73;33.47
6132;BME280;3097;42.692;23.278;2023-05-24T09:12:03;94858.50;;;27.73;33.53
6132;BME280;3097;42.692;23.278;2023-05-24T09:14:29;94842.22;;;27.05;33.67
6132;BME280;3097;42.692;23.278;2023-05-24T09:16:55;94851.50;;;26.70;33.74
6132;BME280;3097;42.692;23.278;2023-05-24T09:19:21;94834.88;;;26.90;34.50
6132;BME280;3097;42.692;23.278;2023-05-24T09:21:48;94857.25;;;27.13;34.49
6132;BME280;3097;42.692;23.278;2023-05-24T09:24:14;94852.19;;;26.79;33.10
6132;BME280;3097;42.692;23.278;2023-05-24T09:26:40;94841.44;;;26.84;34.50
6132;BME280;3097;42.692;23.278;2023-05-24T09:29:06;94855.22;;;27.10;36.19
6132;BME280;3097;42.692;23.278;2023-05-24T09:31:33;94851.34;;;27.08;34.38
6132;BME280;3097;42.692;23.278;2023-05-24T09:33:59;94850.25;;;27.09;32.55
6132;BME280;3097;42.692;23.278;2023-05-24T09:36:26;94844.50;;;26.86;32.51
6132;BME280;3097;42.692;23.278;2023-05-24T09:39:14;94849.56;;;26.79;35.91
6132;BME280;3097;42.692;23.278;2023-05-24T09:41:42;94838.63;;;26.68;32.57
6132;BME280;3097;42.692;23.278;2023-05-24T09:44:12;94849.06;;;26.65;34.14
6132;BME280;3097;42.692;23.278;2023-05-24T09:46:38;94848.66;;;26.33;32.85
6132;BME280;3097;42.692;23.278;2023-05-24T09:49:03;94842.56;;;26.33;34.12
6132;BME280;3097;42.692;23.278;2023-05-24T09:51:31;94840.34;;;26.43;30.81
6132;BME280;3097;42.692;23.278;2023-05-24T09:54:01;94842.25;;;26.34;32.31
6132;BME280;3097;42.692;23.278;2023-05-24T09:56:27;94841.91;;;26.44;35.12
6132;BME280;3097;42.692;23.278;2023-05-24T09:58:53;94839.56;;;26.64;34.39
6132;BME280;3097;42.692;23.278;2023-05-24T10:01:21;94840.13;;;26.69;32.21
6132;BME280;3097;42.692;23.278;2023-05-24T10:03:54;94842.47;;;26.50;32.17
6132;BME280;3097;42.692;23.278;2023-05-24T10:06:20;94844.97;;;26.17;33.08
6132;BME280;3097;42.692;23.278;2023-05-24T10:08:46;94809.56;;;25.89;33.33
6132;BME280;3097;42.692;23.278;2023-05-24T10:11:13;94829.78;;;26.14;37.27
6132;BME280;3097;42.692;23.278;2023-05-24T10:13:38;94823.75;;;26.34;39.47
6132;BME280;3097;42.692;23.278;2023-05-24T10:16:04;94799.34;;;26.37;38.65
6132;BME280;3097;42.692;23.278;2023-05-24T10:18:30;94818.59;;;26.58;33.05
6132;BME280;3097;42.692;23.278;2023-05-24T10:20:56;94822.97;;;26.34;33.77
6132;BME280;3097;42.692;23.278;2023-05-24T10:23:29;94825.38;;;26.27;33.11
6132;BME280;3097;42.692;23.278;2023-05-24T10:26:02;94819.84;;;26.11;32.78
6132;BME280;3097;42.692;23.278;2023-05-24T10:28:28;94824.31;;;25.90;32.56
6132;BME280;3097;42.692;23.278;2023-05-24T10:30:59;94825.88;;;25.91;32.11
6132;BME280;3097;42.692;23.278;2023-05-24T10:33:26;94818.84;;;25.95;32.66
6132;BME280;3097;42.692;23.278;2023-05-24T10:35:52;94821.66;;;25.90;32.92
6132;BME280;3097;42.692;23.278;2023-05-24T10:38:19;94813.81;;;25.72;33.03
6132;BME280;3097;42.692;23.278;2023-05-24T10:40:46;94813.88;;;25.55;33.97
6132;BME280;3097;42.692;23.278;2023-05-24T10:43:11;94821.31;;;25.70;32.39
6132;BME280;3097;42.692;23.278;2023-05-24T10:45:39;94813.31;;;25.79;31.35
6132;BME280;3097;42.692;23.278;2023-05-24T10:50:53;94807.81;;;25.55;33.10
6132;BME280;3097;42.692;23.278;2023-05-24T10:53:21;94797.56;;;25.62;32.25
6132;BME280;3097;42.692;23.278;2023-05-24T10:55:55;94798.03;;;25.55;33.67
6132;BME280;3097;42.692;23.278;2023-05-24T11:01:26;94786.31;;;25.73;34.90
6132;BME280;3097;42.692;23.278;2023-05-24T11:03:52;94782.81;;;25.52;34.49
6132;BME280;3097;42.692;23.278;2023-05-24T11:06:18;94791.09;;;25.42;34.79
6132;BME280;3097;42.692;23.278;2023-05-24T11:08:44;94784.19;;;25.12;34.21
6132;BME280;3097;42.692;23.278;2023-05-24T11:11:14;94781.53;;;25.20;34.14
6132;BME280;3097;42.692;23.278;2023-05-24T11:13:46;94759.50;;;25.25;34.35
6132;BME280;3097;42.692;23.278;2023-05-24T11:16:37;94783.63;;;25.44;33.56
6132;BME280;3097;42.692;23.278;2023-05-24T11:19:30;94777.44;;;25.40;35.66
6132;BME280;3097;42.692;23.278;2023-05-24T11:21:57;94772.03;;;25.28;35.00
6132;BME280;3097;42.692;23.278;2023-05-24T11:24:24;94777.50;;;25.23;34.83
6132;BME280;3097;42.692;23.278;2023-05-24T11:26:50;94776.41;;;25.24;34.64
6132;BME280;3097;42.692;23.278;2023-05-24T11:29:17;94765.09;;;25.23;35.31
6132;BME280;3097;42.692;23.278;2023-05-24T11:31:51;94780.91;;;25.23;35.78
6132;BME280;3097;42.692;23.278;2023-05-24T11:34:17;94769.31;;;25.16;35.14
6132;BME280;3097;42.692;23.278;2023-05-24T11:36:44;94773.56;;;25.37;35.41
6132;BME280;3097;42.692;23.278;2023-05-24T11:39:11;94772.53;;;25.21;34.55
6132;BME280;3097;42.692;23.278;2023-05-24T11:41:38;94751.91;;;25.15;35.24
6132;BME280;3097;42.692;23.278;2023-05-24T11:44:05;94765.22;;;25.27;36.19
6132;BME280;3097;42.692;23.278;2023-05-24T11:46:31;94743.25;;;25.43;35.38
6132;BME280;3097;42.692;23.278;2023-05-24T11:48:57;94760.38;;;25.37;34.54
6132;BME280;3097;42.692;23.278;2023-05-24T11:51:30;94753.78;;;25.52;35.95
6132;BME280;3097;42.692;23.278;2023-05-24T11:53:57;94757.59;;;25.72;33.97
6132;BME280;3097;42.692;23.278;2023-05-24T11:56:27;94753.53;;;25.74;34.59
6132;BME280;3097;42.692;23.278;2023-05-24T12:01:32;94743.75;;;25.37;34.77
6132;BME280;3097;42.692;23.278;2023-05-24T12:03:59;94726.38;;;25.36;36.15
6132;BME280;3097;42.692;23.278;2023-05-24T12:06:33;94746.75;;;25.56;34.73
6132;BME280;3097;42.692;23.278;2023-05-24T12:08:59;94735.22;;;25.40;34.44
6132;BME280;3097;42.692;23.278;2023-05-24T12:11:24;94748.00;;;25.67;34.61
6132;BME280;3097;42.692;23.278;2023-05-24T12:13:50;94745.34;;;25.67;35.49
6132;BME280;3097;42.692;23.278;2023-05-24T12:16:16;94746.09;;;25.76;35.30
6132;BME280;3097;42.692;23.278;2023-05-24T12:18:42;94741.34;;;25.91;35.07
6132;BME280;3097;42.692;23.278;2023-05-24T12:21:09;94738.38;;;25.92;34.22
6132;BME280;3097;42.692;23.278;2023-05-24T12:23:35;94739.53;;;26.03;33.45
6132;BME280;3097;42.692;23.278;2023-05-24T12:26:02;94739.06;;;26.01;33.88
6132;BME280;3097;42.692;23.278;2023-05-24T12:28:35;94728.78;;;26.08;32.53
6132;BME280;3097;42.692;23.278;2023-05-24T12:31:02;94722.38;;;25.89;32.55
6132;BME280;3097;42.692;23.278;2023-05-24T12:33:28;94725.59;;;25.94;33.13
6132;BME280;3097;42.692;23.278;2023-05-24T12:35:53;94727.75;;;26.01;32.82
6132;BME280;3097;42.692;23.278;2023-05-24T12:38:19;94715.94;;;25.77;31.71
6132;BME280;3097;42.692;23.278;2023-05-24T12:40:50;94715.03;;;25.73;34.39
6132;BME280;3097;42.692;23.278;2023-05-24T12:43:15;94705.25;;;25.95;34.93
6132;BME280;3097;42.692;23.278;2023-05-24T12:45:41;94696.78;;;25.80;36.00
6132;BME280;3097;42.692;23.278;2023-05-24T12:48:07;94715.53;;;25.88;32.47
6132;BME280;3097;42.692;23.278;2023-05-24T12:50:32;94719.25;;;25.66;32.82
6132;BME280;3097;42.692;23.278;2023-05-24T12:52:59;94707.88;;;25.44;31.87
6132;BME280;3097;42.692;23.278;2023-05-24T12:55:25;94707.91;;;25.36;33.24
6132;BME280;3097;42.692;23.278;2023-05-24T12:57:54;94706.78;;;25.45;33.86
6132;BME280;3097;42.692;23.278;2023-05-24T13:00:25;94704.91;;;25.46;34.23
6132;BME280;3097;42.692;23.278;2023-05-24T13:02:52;94686.94;;;25.39;34.80
6132;BME280;3097;42.692;23.278;2023-05-24T13:05:20;94709.25;;;25.42;33.67
6132;BME280;3097;42.692;23.278;2023-05-24T13:07:45;94708.31;;;25.17;33.00
6132;BME280;3097;42.692;23.278;2023-05-24T13:10:11;94699.44;;;25.22;33.40
6132;BME280;3097;42.692;23.278;2023-05-24T13:12:37;94698.53;;;25.18;33.89
6132;BME280;3097;42.692;23.278;2023-05-24T13:15:03;94686.81;;;25.27;33.44
6132;BME280;3097;42.692;23.278;2023-05-24T13:17:29;94662.03;;;25.20;33.50
6132;BME280;3097;42.692;23.278;2023-05-24T13:19:54;94695.75;;;25.43;34.05
6132;BME280;3097;42.692;23.278;2023-05-24T13:22:21;94688.97;;;25.34;34.80
6132;BME280;3097;42.692;23.278;2023-05-24T13:24:47;94669.34;;;25.14;34.18
6132;BME280;3097;42.692;23.278;2023-05-24T13:27:12;94692.72;;;25.33;35.41